Time;durP1;ratioP1;P1;durP2;ratioP2;P2;SDS_P1;SDS_P2;PMS_P1;PMS_P2;Temp;Humidity;BMP_temperature;BMP_pressure;BME280_temperature;BME280_humidity;BME280_pressure;Samples;Min_cycle;Max_cycle;Signal;HPM_P1;HPM_P2
2022/06/14 00:01:18;;;;;;;1.50;1.40;;;14.60;55.50;;;;;;923769;153;27367;-74
2022/06/14 00:03:45;;;;;;;1.73;1.63;;;14.60;55.50;;;;;;921539;153;27343;-74
2022/06/14 00:06:23;;;;;;;2.10;1.60;;;14.60;55.60;;;;;;920671;153;27387;-75
2022/06/14 00:08:50;;;;;;;2.57;1.70;;;14.50;55.60;;;;;;922114;153;27498;-75
2022/06/14 00:11:16;;;;;;;2.47;1.73;;;14.50;55.60;;;;;;918920;153;27297;-75
2022/06/14 00:13:43;;;;;;;1.60;1.50;;;14.40;55.60;;;;;;928160;153;27280;-75
2022/06/14 00:16:10;;;;;;;1.90;1.63;;;14.40;55.80;;;;;;941566;151;27416;-74
2022/06/14 00:18:36;;;;;;;1.70;1.60;;;14.30;56.00;;;;;;939624;151;27408;-74
2022/06/14 00:21:03;;;;;;;4.50;1.50;;;14.20;56.00;;;;;;938770;151;27478;-74
2022/06/14 00:23:29;;;;;;;1.50;1.40;;;14.20;56.10;;;;;;939601;151;27370;-74
2022/06/14 00:25:56;;;;;;;1.97;1.70;;;14.20;56.30;;;;;;935243;151;27381;-74
2022/06/14 00:28:22;;;;;;;1.73;1.63;;;14.10;56.50;;;;;;940968;151;27320;-74
2022/06/14 00:30:49;;;;;;;2.60;1.73;;;14.10;56.70;;;;;;943012;151;27273;-74
2022/06/14 00:33:16;;;;;;;2.23;1.97;;;14.00;56.70;;;;;;936937;151;27507;-75
2022/06/14 00:35:42;;;;;;;3.10;1.80;;;14.00;56.80;;;;;;939028;151;27478;-74
2022/06/14 00:38:11;;;;;;;2.03;1.77;;;13.90;56.90;;;;;;936786;151;27301;-74
2022/06/14 00:40:38;;;;;;;2.17;1.77;;;13.80;57.00;;;;;;936242;149;27426;-75
2022/06/14 00:43:05;;;;;;;2.03;1.70;;;13.80;57.00;;;;;;937632;150;27481;-74
2022/06/14 00:45:31;;;;;;;2.00;1.90;;;13.70;57.20;;;;;;935615;150;27443;-74
2022/06/14 00:48:04;;;;;;;2.47;2.00;;;13.60;57.20;;;;;;944051;150;29243;-75
2022/06/14 00:50:49;;;;;;;2.33;2.00;;;13.50;57.30;;;;;;899273;156;27374;-75
2022/06/14 00:53:24;;;;;;;2.70;2.10;;;13.50;57.60;;;;;;897816;153;27343;-75
2022/06/14 00:55:50;;;;;;;1.80;1.70;;;13.40;57.50;;;;;;938704;150;27419;-74
2022/06/14 00:58:20;;;;;;;2.53;1.77;;;13.40;57.70;;;;;;940201;150;27351;-74
2022/06/14 01:00:46;;;;;;;2.67;1.80;;;13.30;57.80;;;;;;944125;150;27345;-74
2022/06/14 01:03:13;;;;;;;2.40;1.97;;;13.20;57.90;;;;;;938896;150;27341;-74
2022/06/14 01:08:27;;;;;;;1.87;1.77;;;13.10;58.40;;;;;;938719;150;27422;-75
2022/06/14 01:10:54;;;;;;;2.93;2.10;;;13.10;58.30;;;;;;939009;150;27535;-74
2022/06/14 01:13:20;;;;;;;1.63;1.53;;;13.00;58.50;;;;;;942013;150;27367;-74
2022/06/14 01:15:47;;;;;;;1.87;1.77;;;13.00;58.70;;;;;;905067;156;27372;-75
2022/06/14 01:18:13;;;;;;;2.03;1.90;;;13.00;58.80;;;;;;898309;155;27386;-75
2022/06/14 01:20:40;;;;;;;2.53;1.70;;;12.90;59.00;;;;;;902361;155;27422;-74
2022/06/14 01:23:06;;;;;;;2.00;1.80;;;12.90;59.00;;;;;;901519;156;27463;-74
2022/06/14 01:25:33;;;;;;;2.50;2.03;;;12.90;59.20;;;;;;907449;156;28422;-74
2022/06/14 01:28:00;;;;;;;2.43;1.70;;;12.90;59.40;;;;;;907354;156;27362;-74
2022/06/14 01:30:31;;;;;;;2.10;1.93;;;12.80;60.00;;;;;;909362;156;27414;-75
2022/06/14 01:32:58;;;;;;;1.60;1.50;;;12.80;59.50;;;;;;907881;156;27921;-75
2022/06/14 01:35:25;;;;;;;3.73;2.43;;;12.80;59.60;;;;;;904332;153;27420;-74
2022/06/14 01:37:52;;;;;;;2.20;2.07;;;12.80;59.70;;;;;;906811;156;27293;-74
2022/06/14 01:40:18;;;;;;;4.17;1.97;;;12.70;59.70;;;;;;908571;153;27418;-75
2022/06/14 01:42:57;;;;;;;1.70;1.60;;;12.70;59.80;;;;;;916123;154;27467;-74
2022/06/14 01:45:35;;;;;;;8.10;2.13;;;12.70;59.90;;;;;;926520;151;27287;-75
2022/06/14 01:48:20;;;;;;;2.47;1.60;;;12.60;60.50;;;;;;936393;151;27374;-75
2022/06/14 01:53:56;;;;;;;3.30;2.17;;;12.50;60.00;;;;;;925860;151;27434;-75
2022/06/14 01:56:34;;;;;;;2.67;1.70;;;12.40;59.90;;;;;;925415;152;27308;-75
2022/06/14 01:59:01;;;;;;;2.20;2.00;;;12.40;60.10;;;;;;919218;150;27430;-74
2022/06/14 02:01:43;;;;;;;1.90;1.80;;;12.30;60.20;;;;;;923781;153;27404;-73
2022/06/14 02:04:39;;;;;;;5.10;1.80;;;12.30;60.50;;;;;;923026;152;27446;-74
2022/06/14 02:07:24;;;;;;;1.70;1.60;;;12.20;60.50;;;;;;922404;153;27441;-73
2022/06/14 02:09:56;;;;;;;2.50;1.90;;;12.10;60.40;;;;;;924358;152;27452;-72
2022/06/14 02:12:41;;;;;;;2.00;1.90;;;12.10;60.70;;;;;;926104;153;27433;-72
2022/06/14 02:15:08;;;;;;;2.20;1.97;;;12.00;61.00;;;;;;907840;152;27390;-73
2022/06/14 02:17:35;;;;;;;1.80;1.70;;;12.00;61.20;;;;;;923506;152;27303;-74
2022/06/14 02:20:01;;;;;;;1.80;1.70;;;11.90;61.30;;;;;;921285;152;27445;-72
2022/06/14 02:22:30;;;;;;;2.90;2.10;;;11.90;61.70;;;;;;924673;153;27446;-74
2022/06/14 02:25:06;;;;;;;2.23;1.90;;;11.90;61.80;;;;;;925866;153;27367;-72
2022/06/14 02:27:41;;;;;;;2.00;1.90;;;11.80;61.90;;;;;;923608;153;27386;-72
2022/06/14 02:30:14;;;;;;;2.17;1.80;;;11.80;61.90;;;;;;921841;153;27866;-74
2022/06/14 02:32:43;;;;;;;2.33;2.13;;;11.80;62.10;;;;;;925213;150;27360;-73
2022/06/14 02:35:10;;;;;;;2.10;1.90;;;11.70;62.20;;;;;;927254;152;27317;-73
2022/06/14 02:37:45;;;;;;;2.30;1.97;;;11.70;62.50;;;;;;922141;152;27880;-73
2022/06/14 02:40:15;;;;;;;3.37;2.00;;;11.60;62.70;;;;;;879604;160;27377;-72
2022/06/14 02:42:42;;;;;;;1.90;1.70;;;11.60;62.70;;;;;;914515;152;27290;-75
2022/06/14 02:45:11;;;;;;;1.90;1.80;;;11.60;62.70;;;;;;919190;153;27302;-72
2022/06/14 02:47:44;;;;;;;1.90;1.80;;;11.60;62.90;;;;;;916173;153;27272;-75
2022/06/14 02:50:25;;;;;;;2.40;2.07;;;11.50;63.00;;;;;;919276;154;27396;-73
2022/06/14 02:52:57;;;;;;;1.73;1.63;;;11.50;63.00;;;;;;915248;153;27315;-74
2022/06/14 02:55:26;;;;;;;3.10;2.10;;;11.40;63.10;;;;;;915331;153;27326;-72
2022/06/14 02:57:53;;;;;;;3.43;2.10;;;11.40;63.20;;;;;;914955;154;27319;-72
2022/06/14 03:00:20;;;;;;;2.10;1.60;;;11.40;63.50;;;;;;917776;153;27393;-71
2022/06/14 03:02:52;;;;;;;2.03;1.83;;;11.30;63.50;;;;;;918014;153;27815;-74
2022/06/14 03:05:19;;;;;;;5.07;2.20;;;11.20;63.60;;;;;;906677;154;27304;-72
2022/06/14 03:07:48;;;;;;;2.57;2.00;;;11.20;63.80;;;;;;918651;153;27307;-73
2022/06/14 03:10:15;;;;;;;1.90;1.80;;;11.20;64.10;;;;;;917754;153;27406;-72
2022/06/14 03:12:47;;;;;;;1.83;1.73;;;11.20;64.10;;;;;;915976;153;27341;-72
2022/06/14 03:15:31;;;;;;;1.97;1.87;;;11.10;64.20;;;;;;917250;153;27331;-73
2022/06/14 03:17:59;;;;;;;2.33;2.00;;;11.10;64.40;;;;;;915679;154;27765;-75
2022/06/14 03:20:34;;;;;;;2.00;1.80;;;11.10;64.60;;;;;;917751;150;27317;-72
2022/06/14 03:23:01;;;;;;;2.07;1.70;;;11.00;64.70;;;;;;916067;153;27355;-75
2022/06/14 03:25:39;;;;;;;6.00;2.20;;;11.00;64.80;;;;;;902746;151;27392;-73
2022/06/14 03:28:09;;;;;;;2.60;1.77;;;11.00;65.20;;;;;;917515;153;27352;-73
2022/06/14 03:30:38;;;;;;;2.00;1.80;;;11.00;65.50;;;;;;918432;154;27274;-75
2022/06/14 03:33:22;;;;;;;2.20;2.10;;;11.10;65.50;;;;;;915481;153;27313;-72
2022/06/14 03:35:47;;;;;;;2.77;2.20;;;11.10;65.70;;;;;;921358;150;27254;-72
2022/06/14 03:38:22;;;;;;;2.87;2.23;;;11.10;65.70;;;;;;918679;153;27250;-72
2022/06/14 03:40:49;;;;;;;4.13;1.93;;;11.10;65.90;;;;;;909494;154;27265;-74
2022/06/14 03:43:15;;;;;;;2.43;2.20;;;11.20;66.00;;;;;;912472;150;27341;-72
2022/06/14 03:45:47;;;;;;;4.53;2.50;;;11.20;66.30;;;;;;917368;154;27573;-72
2022/06/14 03:48:13;;;;;;;2.87;2.30;;;11.20;66.30;;;;;;920140;154;27347;-73
2022/06/14 03:50:42;;;;;;;4.30;2.30;;;11.30;66.30;;;;;;914766;154;27281;-75
2022/06/14 03:53:28;;;;;;;1.90;1.80;;;11.30;66.60;;;;;;916514;153;27339;-74
2022/06/14 03:56:12;;;;;;;2.30;2.10;;;11.40;66.70;;;;;;894714;153;27508;-74
2022/06/14 03:58:42;;;;;;;3.00;2.13;;;11.40;66.40;;;;;;894626;156;27484;-73
2022/06/14 04:01:30;;;;;;;3.03;2.20;;;11.50;66.60;;;;;;900705;153;27430;-76
2022/06/14 04:04:02;;;;;;;5.40;2.60;;;11.50;66.70;;;;;;920235;153;27422;-73
2022/06/14 04:06:43;;;;;;;2.50;2.30;;;11.60;66.60;;;;;;919830;153;27294;-72
2022/06/14 04:09:16;;;;;;;2.80;2.40;;;11.60;66.80;;;;;;921830;151;28054;-73
2022/06/14 04:12:00;;;;;;;2.03;1.93;;;11.70;66.80;;;;;;918670;153;27307;-73
2022/06/14 04:14:53;;;;;;;2.47;2.07;;;11.80;66.90;;;;;;893429;156;27384;-75
2022/06/14 04:17:32;;;;;;;2.10;1.90;;;11.80;66.70;;;;;;904150;156;27354;-74
2022/06/14 04:20:14;;;;;;;3.90;2.47;;;11.90;66.70;;;;;;903937;156;27532;-73
2022/06/14 04:22:50;;;;;;;2.40;2.20;;;12.00;66.80;;;;;;924578;152;27299;-73
2022/06/14 04:25:28;;;;;;;3.00;2.00;;;12.00;66.80;;;;;;926389;150;27318;-72
2022/06/14 04:28:12;;;;;;;2.73;2.10;;;12.10;67.00;;;;;;922481;152;27334;-73
2022/06/14 04:30:39;;;;;;;2.90;2.10;;;12.20;67.00;;;;;;925465;152;27836;-75
2022/06/14 04:33:39;;;;;;;2.90;2.70;;;12.30;67.20;;;;;;928130;150;27413;-74
2022/06/14 04:36:11;;;;;;;3.40;2.90;;;12.40;67.30;;;;;;922508;152;28174;-75
2022/06/14 04:38:46;;;;;;;2.77;2.50;;;12.60;67.50;;;;;;924010;151;27462;-73
2022/06/14 04:41:13;;;;;;;3.37;2.90;;;12.80;67.60;;;;;;923838;152;27456;-76
2022/06/14 04:43:39;;;;;;;4.07;3.07;;;12.90;67.60;;;;;;925792;152;27406;-73
2022/06/14 04:46:06;;;;;;;2.70;2.50;;;13.10;67.80;;;;;;923924;152;27342;-73
2022/06/14 04:48:38;;;;;;;3.03;2.60;;;13.30;67.90;;;;;;922738;152;27418;-73
2022/06/14 04:51:14;;;;;;;4.83;2.60;;;13.50;68.10;;;;;;924997;150;27375;-73
2022/06/14 04:53:43;;;;;;;3.83;2.60;;;13.80;68.50;;;;;;922888;152;27390;-73
2022/06/14 04:56:15;;;;;;;3.52;2.67;;;14.20;69.40;;;;;;925988;152;27462;-74
2022/06/14 04:58:51;;;;;;;3.70;2.25;;;14.80;70.40;;;;;;912341;152;27804;-73
2022/06/14 05:01:20;;;;;;;3.65;3.27;;;15.50;71.00;;;;;;926139;152;27338;-76
2022/06/14 05:03:47;;;;;;;2.37;2.17;;;16.30;71.00;;;;;;926604;152;27377;-73
2022/06/14 05:06:31;;;;;;;3.72;2.10;;;17.20;70.70;;;;;;927602;152;27314;-73
2022/06/14 05:09:07;;;;;;;2.90;2.70;;;18.10;70.00;;;;;;913900;152;27371;-73
2022/06/14 05:11:36;;;;;;;2.72;2.30;;;19.20;68.70;;;;;;925249;152;27311;-73
2022/06/14 05:14:09;;;;;;;2.85;1.90;;;20.30;67.20;;;;;;926704;152;27426;-77
2022/06/14 05:16:36;;;;;;;3.27;1.85;;;21.30;65.20;;;;;;923808;152;27383;-73
2022/06/14 05:19:21;;;;;;;2.75;2.02;;;22.20;63.30;;;;;;924653;152;27833;-74
2022/06/14 05:21:59;;;;;;;2.45;2.25;;;23.20;61.20;;;;;;904513;152;27385;-73
2022/06/14 05:24:26;;;;;;;4.62;2.37;;;24.10;59.60;;;;;;927345;152;27510;-73
2022/06/14 05:27:17;;;;;;;1.98;1.87;;;25.00;57.90;;;;;;929236;152;27348;-73
2022/06/14 05:30:02;;;;;;;2.08;1.98;;;25.70;56.60;;;;;;926277;152;27337;-74
2022/06/14 05:32:37;;;;;;;2.85;2.17;;;26.50;55.30;;;;;;924673;152;27347;-74
2022/06/14 05:35:09;;;;;;;2.87;2.15;;;27.20;54.10;;;;;;924064;152;27381;-74
2022/06/14 05:37:54;;;;;;;2.35;2.12;;;27.80;53.20;;;;;;926661;152;27295;-74
2022/06/14 05:40:26;;;;;;;2.30;2.10;;;28.40;52.30;;;;;;925891;150;27309;-74
2022/06/14 05:42:53;;;;;;;2.30;2.15;;;29.00;51.60;;;;;;929359;150;27352;-77
2022/06/14 05:45:22;;;;;;;2.87;2.08;;;29.60;50.90;;;;;;939088;150;27829;-74
2022/06/14 05:47:46;;;;;;;2.30;2.10;;;30.20;49.90;;;;;;942473;150;27339;-73
2022/06/14 05:50:12;;;;;;;2.45;2.20;;;30.70;49.00;;;;;;937197;150;27456;-73
2022/06/14 05:52:39;;;;;;;2.22;2.10;;;31.30;48.10;;;;;;943590;150;27336;-73
2022/06/14 05:55:11;;;;;;;3.40;1.98;;;31.90;47.40;;;;;;902913;155;27309;-76
2022/06/14 05:57:54;;;;;;;3.02;1.80;;;32.50;46.60;;;;;;938761;150;27820;-76
2022/06/14 06:00:31;;;;;;;2.15;1.65;;;33.00;45.90;;;;;;879586;161;28064;-75
2022/06/14 06:03:07;;;;;;;2.35;1.57;;;33.60;45.20;;;;;;925818;150;27436;-76
2022/06/14 06:05:36;;;;;;;2.90;2.00;;;34.10;44.30;;;;;;938420;150;27434;-75
2022/06/14 06:08:06;;;;;;;2.15;1.92;;;34.70;43.60;;;;;;943869;150;27400;-74
2022/06/14 06:10:32;;;;;;;2.02;1.45;;;35.10;42.60;;;;;;940005;150;28456;-75
2022/06/14 06:12:59;;;;;;;2.02;1.60;;;35.60;41.80;;;;;;943683;150;27367;-74
2022/06/14 06:15:25;;;;;;;2.42;1.80;;;36.00;41.10;;;;;;941144;150;26371;-75
2022/06/14 06:17:52;;;;;;;2.52;1.45;;;36.40;40.30;;;;;;909982;150;26312;-77
2022/06/14 06:20:18;;;;;;;1.62;1.50;;;36.80;39.60;;;;;;942085;147;26322;-74
2022/06/14 06:22:45;;;;;;;2.87;1.72;;;37.20;39.30;;;;;;945177;150;27368;-75
2022/06/14 06:25:15;;;;;;;1.70;1.55;;;37.50;38.10;;;;;;939310;150;26261;-74
2022/06/14 06:27:47;;;;;;;2.15;1.77;;;37.80;36.80;;;;;;942726;150;26357;-74
2022/06/14 06:30:17;;;;;;;2.83;1.82;;;38.00;37.10;;;;;;942481;150;26322;-77
2022/06/14 06:32:43;;;;;;;2.30;1.65;;;38.20;36.20;;;;;;941793;150;26369;-73
2022/06/14 06:35:09;;;;;;;1.92;1.70;;;38.30;35.80;;;;;;943685;150;26335;-74
2022/06/14 06:37:42;;;;;;;2.15;1.77;;;38.50;35.90;;;;;;902968;155;26203;-75
2022/06/14 06:40:14;;;;;;;1.65;1.50;;;38.60;34.80;;;;;;938242;150;26340;-75
2022/06/14 06:42:56;;;;;;;1.70;1.50;;;38.80;34.50;;;;;;943862;147;26364;-74
2022/06/14 06:45:25;;;;;;;3.12;1.80;;;38.90;34.50;;;;;;907861;151;26350;-73
2022/06/14 06:47:58;;;;;;;2.95;1.60;;;39.00;34.30;;;;;;928149;151;27446;-74
2022/06/14 06:50:27;;;;;;;1.57;1.47;;;39.20;34.00;;;;;;935416;151;27332;-74
2022/06/14 06:53:05;;;;;;;2.85;1.45;;;39.40;33.70;;;;;;938306;151;26264;-77
2022/06/14 06:55:47;;;;;;;3.45;1.50;;;39.70;33.30;;;;;;935920;151;26433;-74
2022/06/14 06:58:32;;;;;;;1.62;1.20;;;39.90;32.70;;;;;;936806;151;27842;-75
2022/06/14 07:00:58;;;;;;;3.65;1.50;;;40.20;32.70;;;;;;900741;151;26318;-74
2022/06/14 07:03:40;;;;;;;1.90;1.40;;;40.40;32.20;;;;;;934030;151;26236;-73
2022/06/14 07:06:06;;;;;;;2.00;1.55;;;40.70;32.60;;;;;;936996;151;26377;-74
2022/06/14 07:08:41;;;;;;;3.77;1.52;;;41.00;31.80;;;;;;934498;151;26370;-71
2022/06/14 07:11:08;;;;;;;2.15;1.70;;;41.30;31.40;;;;;;928806;151;26768;-72
2022/06/14 07:13:43;;;;;;;1.47;1.35;;;41.70;31.10;;;;;;936255;151;26314;-73
2022/06/14 07:16:19;;;;;;;2.92;1.20;;;42.00;31.20;;;;;;932037;151;26340;-73
2022/06/14 07:18:51;;;;;;;2.80;1.30;;;42.30;30.30;;;;;;932456;151;26378;-73
2022/06/14 07:21:23;;;;;;;2.45;1.30;;;42.60;30.00;;;;;;931047;151;26245;-72
2022/06/14 07:23:53;;;;;;;1.10;1.00;;;42.90;29.70;;;;;;932619;151;26313;-75
2022/06/14 07:26:35;;;;;;;1.47;1.20;;;43.30;29.40;;;;;;929887;151;26282;-72
2022/06/14 07:29:04;;;;;;;1.30;1.20;;;43.50;28.90;;;;;;930691;151;26385;-73
2022/06/14 07:31:42;;;;;;;4.15;1.55;;;43.80;28.60;;;;;;931869;151;26331;-72
2022/06/14 07:34:09;;;;;;;1.22;1.10;;;44.10;28.10;;;;;;933442;151;26341;-72
2022/06/14 07:36:41;;;;;;;2.02;1.02;;;44.30;28.00;;;;;;900530;155;26362;-72
2022/06/14 07:39:17;;;;;;;1.32;1.17;;;44.60;27.70;;;;;;908718;155;26325;-72
2022/06/14 07:41:52;;;;;;;1.98;1.07;;;44.80;27.30;;;;;;911733;155;26314;-72
2022/06/14 07:44:31;;;;;;;2.42;1.05;;;45.10;27.20;;;;;;923648;151;26247;-73
2022/06/14 07:47:04;;;;;;;1.72;1.22;;;45.30;27.00;;;;;;920715;153;26252;-72
2022/06/14 07:49:39;;;;;;;3.45;1.10;;;45.50;26.70;;;;;;917412;153;26272;-73
2022/06/14 07:52:06;;;;;;;1.90;1.30;;;45.70;26.20;;;;;;921724;153;26224;-72
2022/06/14 07:54:38;;;;;;;1.35;1.10;;;45.90;25.80;;;;;;918957;153;26180;-72
2022/06/14 07:57:14;;;;;;;1.95;1.00;;;46.00;25.00;;;;;;920332;153;26554;-73
2022/06/14 07:59:50;;;;;;;1.32;0.90;;;45.90;25.20;;;;;;917298;153;26304;-74
2022/06/14 08:02:34;;;;;;;1.07;1.00;;;45.90;25.20;;;;;;924779;153;26229;-76
2022/06/14 08:05:01;;;;;;;1.57;1.10;;;45.70;25.00;;;;;;923760;153;26339;-72
2022/06/14 08:07:27;;;;;;;3.02;0.93;;;45.60;25.00;;;;;;921780;153;26136;-74
2022/06/14 08:10:03;;;;;;;3.05;1.25;;;45.50;24.80;;;;;;923963;153;26182;-72
2022/06/14 08:12:36;;;;;;;3.85;1.20;;;45.50;24.70;;;;;;921962;153;26324;-73
2022/06/14 08:15:15;;;;;;;2.25;0.90;;;45.40;24.70;;;;;;920890;152;26265;-76
2022/06/14 08:17:47;;;;;;;1.87;1.40;;;45.30;24.50;;;;;;922854;152;26254;-76
2022/06/14 08:20:35;;;;;;;1.82;1.05;;;45.10;24.40;;;;;;922036;153;26356;-76
2022/06/14 08:23:02;;;;;;;3.60;1.20;;;45.10;24.60;;;;;;924450;152;26282;-74
2022/06/14 08:25:35;;;;;;;1.25;1.12;;;44.90;24.60;;;;;;920230;153;26228;-73
2022/06/14 08:28:06;;;;;;;3.47;1.35;;;44.90;24.60;;;;;;925018;153;26229;-73
2022/06/14 08:30:30;;;;;;;1.90;1.30;;;45.10;24.60;;;;;;921387;153;26335;-75
2022/06/14 08:33:03;;;;;;;2.40;1.15;;;45.20;24.60;;;;;;919862;153;26295;-75
2022/06/14 08:35:41;;;;;;;2.17;1.00;;;45.60;24.50;;;;;;919297;153;26317;-73
2022/06/14 08:38:16;;;;;;;1.80;1.22;;;45.80;24.30;;;;;;919942;153;26237;-73
2022/06/14 08:40:46;;;;;;;2.12;1.20;;;46.10;24.10;;;;;;923559;150;26257;-75
2022/06/14 08:43:12;;;;;;;1.27;1.10;;;46.40;23.90;;;;;;898651;151;26276;-74
2022/06/14 08:46:02;;;;;;;1.10;0.95;;;46.60;23.60;;;;;;936083;150;26271;-74
2022/06/14 08:48:38;;;;;;;1.12;0.80;;;46.90;23.30;;;;;;938445;150;26402;-74
2022/06/14 08:51:26;;;;;;;0.98;0.75;;;47.10;23.20;;;;;;938632;150;26342;-75
2022/06/14 08:54:07;;;;;;;2.05;1.00;;;47.20;23.10;;;;;;942075;150;26346;-77
2022/06/14 08:56:55;;;;;;;2.05;0.93;;;47.40;22.90;;;;;;901663;155;26457;-74
2022/06/14 08:59:46;;;;;;;1.10;1.00;;;47.50;23.10;;;;;;922122;153;26325;-73
2022/06/14 09:02:24;;;;;;;1.55;0.95;;;47.50;22.10;;;;;;912085;155;26321;-76
2022/06/14 09:05:28;;;;;;;6.92;1.22;;;47.60;21.90;;;;;;922496;153;26370;-75
2022/06/14 09:08:33;;;;;;;1.67;0.80;;;47.70;21.40;;;;;;906146;155;26382;-74
2022/06/14 09:11:17;;;;;;;1.12;0.65;;;47.70;21.40;;;;;;907217;155;26360;-77
2022/06/14 09:14:18;;;;;;;1.05;0.70;;;47.70;21.40;;;;;;902248;155;26445;-74
2022/06/14 09:17:03;;;;;;;1.47;0.88;;;47.80;21.40;;;;;;903888;155;26256;-76
2022/06/14 09:20:03;;;;;;;1.17;0.90;;;47.70;20.90;;;;;;898543;155;26497;-77
2022/06/14 09:22:32;;;;;;;0.50;0.50;;;47.60;20.50;;;;;;908104;155;26334;-74
2022/06/14 09:25:14;;;;;;;2.65;0.70;;;47.50;20.40;;;;;;924067;153;26375;-75
2022/06/14 09:27:43;;;;;;;1.37;0.65;;;47.50;20.40;;;;;;882904;155;26354;-74
2022/06/14 09:30:20;;;;;;;0.90;0.78;;;47.40;20.50;;;;;;898812;155;26322;-75
2022/06/14 09:36:15;;;;;;;1.95;0.88;;;47.20;19.60;;;;;;901465;155;26900;-73
2022/06/14 09:39:03;;;;;;;2.25;0.80;;;47.00;19.70;;;;;;916424;153;26372;-74
2022/06/14 09:41:54;;;;;;;1.82;0.90;;;46.60;19.70;;;;;;902184;155;26427;-73
2022/06/14 09:44:21;;;;;;;1.05;0.70;;;46.30;19.90;;;;;;916372;153;26333;-73
2022/06/14 09:47:02;;;;;;;0.78;0.68;;;46.00;19.60;;;;;;917999;153;26224;-74
2022/06/14 09:49:38;;;;;;;1.17;0.90;;;45.80;19.50;;;;;;916813;154;26280;-74
2022/06/14 09:52:22;;;;;;;2.17;0.90;;;45.50;19.60;;;;;;914838;154;26301;-74
2022/06/14 09:54:58;;;;;;;1.40;0.70;;;45.10;19.40;;;;;;913250;153;26246;-74
2022/06/14 09:57:43;;;;;;;1.50;0.90;;;44.60;19.70;;;;;;913873;154;26200;-74
2022/06/14 10:00:27;;;;;;;1.05;0.95;;;44.20;19.90;;;;;;915701;154;26213;-74
2022/06/14 10:03:03;;;;;;;1.55;1.00;;;43.80;19.90;;;;;;901298;156;26422;-74
2022/06/14 10:05:36;;;;;;;1.30;1.17;;;43.40;19.90;;;;;;919319;153;26386;-76
2022/06/14 10:08:08;;;;;;;1.07;0.98;;;43.00;20.20;;;;;;917275;154;26396;-73
2022/06/14 10:10:59;;;;;;;3.00;1.60;;;42.60;20.10;;;;;;912638;155;29010;-74
2022/06/14 10:13:40;;;;;;;8.13;1.98;;;42.20;20.10;;;;;;908627;155;26296;-73
2022/06/14 10:16:28;;;;;;;1.32;1.07;;;41.70;20.20;;;;;;908243;155;27372;-72
2022/06/14 10:19:03;;;;;;;1.85;1.10;;;41.00;20.10;;;;;;911095;155;26270;-74
2022/06/14 10:21:48;;;;;;;2.05;1.20;;;40.40;20.20;;;;;;905289;155;27463;-74
2022/06/14 10:24:34;;;;;;;1.27;1.17;;;39.80;20.20;;;;;;909162;155;27394;-73
2022/06/14 10:30:00;;;;;;;2.08;1.20;;;38.30;20.60;;;;;;907586;155;27520;-75
2022/06/14 10:32:54;;;;;;;1.30;1.20;;;37.60;20.90;;;;;;909735;155;27357;-73
2022/06/14 10:35:36;;;;;;;1.85;0.93;;;36.90;21.00;;;;;;907511;155;27551;-74
2022/06/14 10:38:21;;;;;;;3.05;1.40;;;36.30;21.10;;;;;;910871;155;27420;-74
2022/06/14 10:41:09;;;;;;;1.80;1.42;;;35.60;21.30;;;;;;906514;155;27374;-73
2022/06/14 10:43:42;;;;;;;1.82;1.00;;;35.00;21.60;;;;;;906840;155;27429;-75
2022/06/14 10:46:11;;;;;;;1.55;1.10;;;34.40;22.00;;;;;;913108;152;27462;-73
2022/06/14 10:48:40;;;;;;;1.37;1.07;;;34.00;22.00;;;;;;917135;152;27373;-73
2022/06/14 10:51:19;;;;;;;1.32;1.22;;;33.60;22.30;;;;;;911862;153;27476;-72
2022/06/14 10:54:00;;;;;;;1.20;1.02;;;33.20;22.50;;;;;;919676;153;27351;-73
2022/06/14 10:57:04;;;;;;;2.25;1.00;;;32.90;22.40;;;;;;922521;153;27308;-73
2022/06/14 10:59:49;;;;;;;0.85;0.85;;;32.50;22.60;;;;;;919235;153;27432;-73
2022/06/14 11:02:40;;;;;;;1.10;1.00;;;32.20;22.80;;;;;;919518;153;27795;-73
2022/06/14 11:05:06;;;;;;;2.15;1.00;;;31.90;22.80;;;;;;887290;152;27436;-73
2022/06/14 11:07:42;;;;;;;1.47;1.00;;;31.60;23.00;;;;;;918780;152;27447;-73
2022/06/14 11:10:32;;;;;;;2.90;1.10;;;31.30;23.30;;;;;;917396;153;28754;-73
2022/06/14 11:13:05;;;;;;;1.62;1.07;;;31.10;23.60;;;;;;918652;151;27416;-73
2022/06/14 11:15:50;;;;;;;1.47;0.90;;;30.90;23.90;;;;;;920663;151;27328;-72
2022/06/14 11:18:40;;;;;;;0.98;0.98;;;30.70;24.20;;;;;;920661;153;27479;-74
2022/06/14 11:21:31;;;;;;;1.90;1.10;;;30.60;24.00;;;;;;916934;153;27971;-76
2022/06/14 11:24:22;;;;;;;1.20;0.68;;;30.50;23.90;;;;;;919819;151;27419;-72
2022/06/14 11:27:01;;;;;;;2.17;1.05;;;30.40;24.00;;;;;;919849;153;27421;-72
2022/06/14 11:29:30;;;;;;;1.50;1.10;;;30.20;24.10;;;;;;918538;154;27368;-73
2022/06/14 11:32:09;;;;;;;1.52;1.20;;;30.10;24.40;;;;;;929630;151;27349;-75
2022/06/14 11:34:57;;;;;;;2.58;1.40;;;30.00;24.50;;;;;;924919;152;27450;-73
2022/06/14 11:37:38;;;;;;;1.00;1.00;;;29.90;24.50;;;;;;921167;151;27373;-75
2022/06/14 11:40:17;;;;;;;0.82;0.82;;;29.80;24.80;;;;;;932447;151;27416;-74
2022/06/14 11:42:49;;;;;;;3.60;1.20;;;29.70;24.50;;;;;;924844;152;27408;-74
2022/06/14 11:45:37;;;;;;;1.00;0.90;;;29.70;24.50;;;;;;903218;155;27398;-74
2022/06/14 11:48:12;;;;;;;1.45;1.20;;;29.60;24.40;;;;;;894873;155;28245;-75
2022/06/14 11:50:38;;;;;;;1.37;1.00;;;29.50;24.50;;;;;;892241;157;27496;-73
2022/06/14 11:53:30;;;;;;;2.12;1.20;;;29.40;24.50;;;;;;919492;153;27398;-75
2022/06/14 11:56:06;;;;;;;1.22;1.10;;;29.40;25.10;;;;;;917262;151;27303;-73
2022/06/14 11:58:44;;;;;;;1.00;0.90;;;29.30;24.50;;;;;;911605;154;28101;-74
2022/06/14 12:01:17;;;;;;;2.83;1.32;;;29.30;24.50;;;;;;914030;154;27274;-74
2022/06/14 12:04:08;;;;;;;1.85;1.00;;;29.20;24.40;;;;;;915506;154;27275;-74
2022/06/14 12:06:38;;;;;;;0.70;0.70;;;29.10;24.50;;;;;;912410;154;27281;-73
2022/06/14 12:09:16;;;;;;;1.95;0.95;;;29.00;24.60;;;;;;915009;154;27458;-74
2022/06/14 12:11:55;;;;;;;1.05;0.82;;;29.00;24.60;;;;;;913195;154;27332;-74
2022/06/14 12:14:24;;;;;;;0.88;0.88;;;28.90;24.50;;;;;;913955;154;27298;-74
2022/06/14 12:17:12;;;;;;;3.08;0.80;;;28.80;24.50;;;;;;914510;154;27268;-74
2022/06/14 12:19:38;;;;;;;0.60;0.60;;;28.70;24.60;;;;;;914964;153;27465;-74
2022/06/14 12:22:29;;;;;;;1.30;0.90;;;28.70;24.40;;;;;;920881;153;27306;-75
2022/06/14 12:27:40;;;;;;;1.30;0.82;;;28.60;24.60;;;;;;913090;153;27418;-73
2022/06/14 12:30:07;;;;;;;1.02;0.93;;;28.50;24.50;;;;;;915086;154;27386;-73
2022/06/14 12:32:33;;;;;;;1.05;1.00;;;28.40;24.40;;;;;;898930;157;27418;-73
2022/06/14 12:35:03;;;;;;;1.80;0.93;;;28.40;24.50;;;;;;907077;154;27400;-75
2022/06/14 12:37:38;;;;;;;1.35;1.20;;;28.40;24.50;;;;;;904439;154;27421;-77
2022/06/14 12:40:11;;;;;;;1.67;0.88;;;28.40;25.00;;;;;;890654;156;27442;-73
2022/06/14 12:42:37;;;;;;;1.47;1.22;;;28.30;25.10;;;;;;890744;159;27482;-74
2022/06/14 12:45:09;;;;;;;0.93;0.93;;;28.30;25.30;;;;;;923133;151;27349;-73
2022/06/14 12:47:54;;;;;;;0.72;0.68;;;28.40;25.30;;;;;;923098;153;27510;-74
2022/06/14 12:50:21;;;;;;;0.88;0.60;;;28.40;25.40;;;;;;920539;154;27763;-74
2022/06/14 12:52:47;;;;;;;2.80;1.30;;;28.40;25.50;;;;;;918563;154;27450;-74
2022/06/14 12:55:35;;;;;;;1.00;0.80;;;28.40;25.20;;;;;;923790;154;27361;-74
2022/06/14 12:58:02;;;;;;;1.00;0.90;;;28.40;24.90;;;;;;924256;154;27465;-73
2022/06/14 13:00:31;;;;;;;3.40;0.78;;;28.50;25.00;;;;;;921130;150;27314;-76
2022/06/14 13:02:57;;;;;;;0.80;0.80;;;28.40;24.70;;;;;;921105;150;27349;-74
2022/06/14 13:05:24;;;;;;;2.50;0.80;;;28.40;24.50;;;;;;925446;154;27345;-73
2022/06/14 13:08:05;;;;;;;0.78;0.62;;;28.40;24.60;;;;;;921396;153;27542;-75
2022/06/14 13:11:02;;;;;;;0.88;0.80;;;28.40;24.60;;;;;;923334;153;27386;-75
2022/06/14 13:14:03;;;;;;;2.08;0.80;;;28.40;24.60;;;;;;920204;153;27423;-76
2022/06/14 13:16:53;;;;;;;0.78;0.78;;;28.40;24.60;;;;;;919131;150;27929;-74
2022/06/14 13:19:38;;;;;;;0.88;0.80;;;28.40;24.60;;;;;;908202;154;27439;-77
2022/06/14 13:22:19;;;;;;;2.42;1.00;;;28.30;24.70;;;;;;919797;154;27392;-73
2022/06/14 13:25:04;;;;;;;0.95;0.80;;;28.30;25.10;;;;;;919728;154;27457;-74
2022/06/14 13:27:43;;;;;;;1.32;0.90;;;28.30;25.00;;;;;;918197;154;27900;-74
2022/06/14 13:30:27;;;;;;;1.52;1.10;;;28.30;24.90;;;;;;916771;153;27418;-73
2022/06/14 13:33:00;;;;;;;1.35;0.80;;;28.30;25.00;;;;;;905163;156;27373;-76
2022/06/14 13:35:44;;;;;;;1.07;0.85;;;28.30;25.10;;;;;;907203;153;27400;-74
2022/06/14 13:38:23;;;;;;;1.07;0.80;;;28.20;25.20;;;;;;904658;155;27382;-74
2022/06/14 13:40:52;;;;;;;1.02;0.90;;;28.30;25.20;;;;;;919603;154;27354;-75
2022/06/14 13:43:34;;;;;;;0.80;0.80;;;28.30;25.10;;;;;;916302;154;27357;-76